createdAt,value
2022-09-23T00:01:07.523Z,71.44
2022-09-23T00:03:41.893Z,71.55
2022-09-23T00:06:14.860Z,71.89
2022-09-23T00:08:45.435Z,72.02
2022-09-23T00:11:18.548Z,71.81
2022-09-23T00:13:51.259Z,71.64
2022-09-23T00:16:24.104Z,71.57
2022-09-23T00:18:55.308Z,71.37
2022-09-23T00:21:26.346Z,71.19
2022-09-23T00:23:57.129Z,71.17
2022-09-23T00:26:28.022Z,71.40
2022-09-23T00:28:58.632Z,71.38
2022-09-23T00:31:29.571Z,71.59
2022-09-23T00:34:02.064Z,71.81
2022-09-23T00:36:33.406Z,71.79
2022-09-23T00:39:04.702Z,71.64
2022-09-23T00:41:35.735Z,71.62
2022-09-23T00:44:36.957Z,71.72
2022-09-23T00:47:12.602Z,71.80
2022-09-23T00:49:45.451Z,71.76
2022-09-23T00:52:19.171Z,71.87
2022-09-23T00:54:55.079Z,71.67
2022-09-23T00:57:27.135Z,71.70
2022-09-23T00:59:58.248Z,71.49
2022-09-23T01:02:29.396Z,71.65
2022-09-23T01:05:02.186Z,71.41
2022-09-23T01:07:31.218Z,71.33
2022-09-23T01:10:03.084Z,71.58
2022-09-23T01:12:59.849Z,71.71
2022-09-23T01:15:40.571Z,71.80
2022-09-23T01:18:24.478Z,71.76
2022-09-23T01:21:11.375Z,71.72
2022-09-23T01:24:05.629Z,71.73
2022-09-23T01:26:56.755Z,71.59
2022-09-23T01:29:58.021Z,71.59
2022-09-23T01:32:39.428Z,71.40
2022-09-23T01:35:18.207Z,71.79
2022-09-23T01:37:53.375Z,71.62
2022-09-23T01:40:31.006Z,71.94
2022-09-23T01:43:10.524Z,72.15
2022-09-23T01:45:45.331Z,72.44
2022-09-23T01:48:22.949Z,72.87
2022-09-23T01:50:59.588Z,72.43
2022-09-23T01:53:38.830Z,72.12
2022-09-23T01:56:15.123Z,72.12
2022-09-23T01:58:52.248Z,71.80
2022-09-23T02:01:29.623Z,71.93
2022-09-23T02:04:05.811Z,72.06
2022-09-23T02:06:41.439Z,71.89
2022-09-23T02:09:16.819Z,72.13
2022-09-23T02:11:49.728Z,72.46
2022-09-23T02:14:25.468Z,72.68
2022-09-23T02:17:00.061Z,72.86
2022-09-23T02:19:35.393Z,72.90
2022-09-23T02:22:10.122Z,72.98
2022-09-23T02:24:42.011Z,72.96
2022-09-23T02:27:20.336Z,72.73
2022-09-23T02:29:58.368Z,72.74
2022-09-23T02:32:37.263Z,72.56
2022-09-23T02:35:18.023Z,72.73
2022-09-23T02:37:53.172Z,72.69
2022-09-23T02:40:29.193Z,72.71
2022-09-23T02:43:07.347Z,72.77
2022-09-23T02:45:39.182Z,72.82
2022-09-23T02:48:14.890Z,72.80
2022-09-23T02:50:47.714Z,72.85
2022-09-23T02:53:17.251Z,72.90
2022-09-23T02:55:47.966Z,73.05
2022-09-23T02:58:18.884Z,72.50
2022-09-23T03:01:05.065Z,72.60
2022-09-23T03:03:48.516Z,72.82
2022-09-23T03:06:30.419Z,72.77
2022-09-23T03:09:07.365Z,72.85
2022-09-23T03:11:41.606Z,72.65
2022-09-23T03:14:23.333Z,72.67
2022-09-23T03:17:00.555Z,72.67
2022-09-23T03:19:34.319Z,72.32
2022-09-23T03:22:09.763Z,72.51
2022-09-23T03:24:44.773Z,72.67
2022-09-23T03:27:18.706Z,72.97
2022-09-23T03:29:52.395Z,72.95
2022-09-23T03:32:27.981Z,72.61
2022-09-23T03:35:01.879Z,72.83
2022-09-23T03:37:38.718Z,72.56
2022-09-23T03:40:16.124Z,72.80
2022-09-23T03:42:48.911Z,73.37
2022-09-23T03:45:23.052Z,73.70
2022-09-23T03:47:53.959Z,73.70
2022-09-23T03:50:24.822Z,73.75
2022-09-23T03:52:55.762Z,73.83
2022-09-23T03:55:26.428Z,74.02
2022-09-23T03:57:57.026Z,74.19
2022-09-23T04:00:27.998Z,74.17
2022-09-23T04:02:58.560Z,74.51
2022-09-23T04:05:29.357Z,74.63
2022-09-23T04:08:00.079Z,74.48
2022-09-23T04:10:30.638Z,74.44
2022-09-23T04:13:01.241Z,74.53
2022-09-23T04:15:31.859Z,74.59
2022-09-23T04:18:02.416Z,74.48
2022-09-23T04:20:33.110Z,74.39
2022-09-23T04:23:03.723Z,74.72
2022-09-23T04:25:34.442Z,74.77
2022-09-23T04:28:05.299Z,74.99
2022-09-23T04:30:35.954Z,74.73
2022-09-23T04:33:06.779Z,74.35
2022-09-23T04:35:40.345Z,74.21
2022-09-23T04:38:12.035Z,74.03
2022-09-23T04:40:43.022Z,74.23
2022-09-23T04:43:15.565Z,74.29
2022-09-23T04:45:46.710Z,74.03
2022-09-23T04:48:17.666Z,74.01
2022-09-23T04:50:48.857Z,73.94
2022-09-23T04:53:19.779Z,73.86
2022-09-23T04:55:52.284Z,73.83
2022-09-23T04:58:23.048Z,73.79
2022-09-23T05:00:53.708Z,74.10
2022-09-23T05:03:25.053Z,73.97
2022-09-23T05:05:59.895Z,73.94
2022-09-23T05:08:30.703Z,74.15
2022-09-23T05:11:04.787Z,74.46
2022-09-23T05:13:36.448Z,74.37
2022-09-23T05:16:09.779Z,74.24
2022-09-23T05:18:42.857Z,74.46
2022-09-23T05:21:15.344Z,74.21
2022-09-23T05:23:52.408Z,74.09
2022-09-23T05:26:25.469Z,74.06
2022-09-23T05:28:57.412Z,74.19
2022-09-23T05:31:29.920Z,74.41
2022-09-23T05:34:02.360Z,74.41
2022-09-23T05:36:38.384Z,74.31
2022-09-23T05:39:10.533Z,74.16
2022-09-23T05:41:43.482Z,74.18
2022-09-23T05:44:14.156Z,74.03
2022-09-23T05:46:44.830Z,74.27
2022-09-23T05:49:15.523Z,74.89
2022-09-23T05:51:46.443Z,74.78
2022-09-23T05:54:17.306Z,74.82
2022-09-23T05:56:47.919Z,74.58
2022-09-23T05:59:18.534Z,74.29
2022-09-23T06:01:52.044Z,74.16
2022-09-23T06:04:25.429Z,73.63
2022-09-23T06:07:00.346Z,72.43
2022-09-23T06:09:36.547Z,72.50
2022-09-23T06:12:08.321Z,72.53
2022-09-23T06:14:39.005Z,71.72
2022-09-23T06:17:09.660Z,71.14
2022-09-23T06:19:40.296Z,70.69
2022-09-23T06:22:11.902Z,69.99
2022-09-23T06:24:42.623Z,69.60
2022-09-23T06:27:13.419Z,69.86
2022-09-23T06:29:44.028Z,69.17
2022-09-23T06:32:14.779Z,68.46
2022-09-23T06:34:51.436Z,67.94
2022-09-23T06:37:23.396Z,67.36
2022-09-23T06:39:54.920Z,66.83
2022-09-23T06:42:25.566Z,66.52
2022-09-23T06:44:56.194Z,66.01
2022-09-23T06:47:26.846Z,65.33
2022-09-23T06:49:57.748Z,64.96
2022-09-23T06:52:28.785Z,63.95
2022-09-23T06:55:00.987Z,64.01
2022-09-23T06:57:33.854Z,64.48
2022-09-23T07:00:05.192Z,63.86
2022-09-23T07:02:36.337Z,62.95
2022-09-23T07:05:09.472Z,62.51
2022-09-23T07:07:40.217Z,62.13
2022-09-23T07:10:12.794Z,61.74
2022-09-23T07:12:43.359Z,61.78
2022-09-23T07:15:15.395Z,61.35
2022-09-23T07:17:46.038Z,61.03
2022-09-23T07:20:17.968Z,60.91
2022-09-23T07:22:53.223Z,60.07
2022-09-23T07:25:24.183Z,59.19
2022-09-23T07:27:56.778Z,59.06
2022-09-23T07:30:27.518Z,58.40
2022-09-23T07:32:58.231Z,58.26
2022-09-23T07:35:29.143Z,57.54
2022-09-23T07:37:59.808Z,57.08
2022-09-23T07:40:30.545Z,56.97
2022-09-23T07:43:02.095Z,56.97
2022-09-23T07:45:33.902Z,57.10
2022-09-23T07:48:05.283Z,57.44
2022-09-23T07:50:35.966Z,57.58
2022-09-23T07:53:07.937Z,57.44
2022-09-23T07:55:38.946Z,57.27
2022-09-23T07:58:09.492Z,57.02
2022-09-23T08:00:40.555Z,56.05
2022-09-23T08:03:11.334Z,56.37
2022-09-23T08:05:42.162Z,55.27
2022-09-23T08:08:14.156Z,55.29
2022-09-23T08:10:45.907Z,54.99
2022-09-23T08:13:16.443Z,55.28
2022-09-23T08:15:55.195Z,55.63
2022-09-23T08:18:26.655Z,54.45
2022-09-23T08:20:57.251Z,54.36
2022-09-23T08:23:33.283Z,54.19
2022-09-23T08:26:08.497Z,53.91
2022-09-23T08:28:41.099Z,53.99
2022-09-23T08:31:13.713Z,53.88
2022-09-23T08:33:44.426Z,53.14
2022-09-23T08:36:15.086Z,53.06
2022-09-23T08:38:45.852Z,52.93
2022-09-23T08:41:26.453Z,52.33
2022-09-23T08:44:03.580Z,52.00
2022-09-23T08:46:39.148Z,51.66
2022-09-23T08:49:15.195Z,51.17
2022-09-23T08:51:49.031Z,51.08
2022-09-23T08:54:20.474Z,50.89
2022-09-23T08:56:53.295Z,50.58
2022-09-23T08:59:36.808Z,50.21
2022-09-23T09:02:16.606Z,49.88
2022-09-23T09:04:50.738Z,50.25
2022-09-23T09:07:36.530Z,50.24
2022-09-23T09:10:16.610Z,50.20
2022-09-23T09:12:50.903Z,49.67
2022-09-23T09:15:26.624Z,49.42
2022-09-23T09:18:06.537Z,49.17
2022-09-23T09:20:42.637Z,49.07
2022-09-23T09:23:22.709Z,49.37
2022-09-23T09:25:55.564Z,48.91
2022-09-23T09:28:31.124Z,48.81
2022-09-23T09:31:08.065Z,48.17
2022-09-23T09:33:45.865Z,48.49
2022-09-23T09:36:30.872Z,48.51
2022-09-23T09:39:01.885Z,47.92
2022-09-23T09:41:32.941Z,48.19
2022-09-23T09:44:10.985Z,45.95
2022-09-23T09:46:56.744Z,46.22
2022-09-23T09:49:40.103Z,46.48
2022-09-23T09:52:24.316Z,47.44
2022-09-23T09:55:00.588Z,45.88
2022-09-23T09:57:36.356Z,44.43
2022-09-23T10:00:35.443Z,43.07
2022-09-23T10:03:24.332Z,43.24
2022-09-23T10:05:57.717Z,42.65
2022-09-23T10:08:33.455Z,42.26
2022-09-23T10:11:07.006Z,43.18
2022-09-23T10:13:37.951Z,43.80
2022-09-23T10:16:09.535Z,44.52
2022-09-23T10:18:50.807Z,43.73
2022-09-23T10:21:27.933Z,44.67
2022-09-23T10:24:03.133Z,44.89
2022-09-23T10:26:36.233Z,44.58
2022-09-23T10:29:21.265Z,43.20
2022-09-23T10:32:13.418Z,41.92
2022-09-23T10:34:46.794Z,41.95
2022-09-23T10:37:31.226Z,42.62
2022-09-23T10:40:30.209Z,42.10
2022-09-23T10:43:41.261Z,42.29
2022-09-23T10:46:41.750Z,41.97
2022-09-23T10:49:36.582Z,41.56
2022-09-23T10:52:22.296Z,42.86
2022-09-23T10:55:06.665Z,42.89
2022-09-23T10:57:54.212Z,43.05
2022-09-23T11:00:30.235Z,43.36
2022-09-23T11:03:26.337Z,44.08
2022-09-23T11:06:13.314Z,43.71
2022-09-23T11:08:56.400Z,43.14
2022-09-23T11:11:39.409Z,42.29
2022-09-23T11:14:25.998Z,42.70
2022-09-23T11:17:16.250Z,43.21
2022-09-23T11:20:02.834Z,42.89
2022-09-23T11:22:52.769Z,42.71
2022-09-23T11:25:36.248Z,43.31
2022-09-23T11:28:26.128Z,43.54
2022-09-23T11:31:10.274Z,43.54
2022-09-23T11:33:53.611Z,43.60
2022-09-23T11:36:32.924Z,44.21
2022-09-23T11:39:09.362Z,44.07
2022-09-23T11:41:42.413Z,43.93
2022-09-23T11:44:20.586Z,44.43
2022-09-23T11:46:56.905Z,43.91
2022-09-23T11:49:32.538Z,43.09
2022-09-23T11:52:11.475Z,42.92
2022-09-23T11:54:50.656Z,42.80
2022-09-23T11:57:35.610Z,43.25
2022-09-23T12:00:20.076Z,42.88
2022-09-23T12:03:09.842Z,43.19
2022-09-23T12:05:45.844Z,43.28
2022-09-23T12:08:25.585Z,43.18
2022-09-23T12:11:06.089Z,42.25
2022-09-23T12:13:45.977Z,41.76
2022-09-23T12:16:45.733Z,42.13
2022-09-23T12:19:30.929Z,42.29
2022-09-23T12:22:19.386Z,42.90
2022-09-23T12:24:58.515Z,42.64
2022-09-23T12:27:36.985Z,42.26
2022-09-23T12:30:15.370Z,42.68
2022-09-23T12:32:46.648Z,42.04
2022-09-23T12:35:32.197Z,41.45
2022-09-23T12:38:03.989Z,41.60
2022-09-23T12:40:43.880Z,42.47
2022-09-23T12:43:30.295Z,42.35
2022-09-23T12:46:19.468Z,42.35
2022-09-23T12:49:02.179Z,42.26
2022-09-23T12:51:34.104Z,41.87
2022-09-23T12:54:25.492Z,41.65
2022-09-23T12:57:10.284Z,41.70
2022-09-23T13:00:15.569Z,41.80
2022-09-23T13:03:13.892Z,42.52
2022-09-23T13:06:10.949Z,42.78
2022-09-23T13:08:46.862Z,42.64
2022-09-23T13:11:24.123Z,42.58
2022-09-23T13:13:56.268Z,42.88
2022-09-23T13:16:31.352Z,42.82
2022-09-23T13:19:03.555Z,43.17
2022-09-23T13:22:09.210Z,42.58
2022-09-23T13:24:54.309Z,42.89
2022-09-23T13:27:29.044Z,42.96
2022-09-23T13:30:03.270Z,42.85
2022-09-23T13:32:37.975Z,42.86
2022-09-23T13:35:22.745Z,42.76
2022-09-23T13:37:54.586Z,42.83
2022-09-23T13:40:28.177Z,42.84
2022-09-23T13:43:02.244Z,43.17
2022-09-23T13:45:37.660Z,43.40
2022-09-23T13:48:15.826Z,43.35
2022-09-23T13:50:50.455Z,43.17
2022-09-23T13:53:27.039Z,43.13
2022-09-23T13:56:06.580Z,42.86
2022-09-23T13:58:37.858Z,42.78
2022-09-23T14:01:11.217Z,43.26
2022-09-23T14:03:41.927Z,43.83
2022-09-23T14:06:15.243Z,44.49
2022-09-23T14:08:48.714Z,44.61
2022-09-23T14:11:22.578Z,44.14
2022-09-23T14:13:55.133Z,43.39
2022-09-23T14:16:28.112Z,43.44
2022-09-23T14:19:01.199Z,43.19
2022-09-23T14:21:35.327Z,43.70
2022-09-23T14:24:21.558Z,43.94
2022-09-23T14:26:56.995Z,44.55
2022-09-23T14:29:30.578Z,44.99
2022-09-23T14:32:04.280Z,45.34
2022-09-23T14:35:09.273Z,45.44
2022-09-23T14:38:02.535Z,45.85
2022-09-23T14:40:35.960Z,46.17
2022-09-23T14:43:15.753Z,45.16
2022-09-23T14:45:51.818Z,44.97
2022-09-23T14:48:28.925Z,44.85
2022-09-23T14:51:01.862Z,44.97
2022-09-23T14:53:37.006Z,45.14
2022-09-23T14:56:22.738Z,44.88
2022-09-23T14:58:56.116Z,44.94
2022-09-23T15:01:37.279Z,44.99
2022-09-23T15:04:32.298Z,45.19
2022-09-23T15:07:07.572Z,45.24
2022-09-23T15:09:42.722Z,45.20
2022-09-23T15:12:20.693Z,44.28
2022-09-23T15:14:56.572Z,44.61
2022-09-23T15:17:35.088Z,44.66
2022-09-23T15:20:10.017Z,44.69
2022-09-23T15:22:48.341Z,44.85
2022-09-23T15:25:19.892Z,44.73
2022-09-23T15:28:02.393Z,44.53
2022-09-23T15:30:35.424Z,44.82
2022-09-23T15:33:08.229Z,45.12
2022-09-23T15:35:42.781Z,44.86
2022-09-23T15:38:13.389Z,45.36
2022-09-23T15:40:44.941Z,45.33
2022-09-23T15:43:21.193Z,45.55
2022-09-23T15:45:54.273Z,45.93
2022-09-23T15:48:28.650Z,46.25
2022-09-23T15:51:03.941Z,46.54
2022-09-23T15:53:34.821Z,47.01
2022-09-23T15:56:06.191Z,47.14
2022-09-23T15:58:36.879Z,47.47
2022-09-23T16:01:08.431Z,48.13
2022-09-23T16:03:39.170Z,48.55
2022-09-23T16:06:13.880Z,48.88
2022-09-23T16:08:45.215Z,49.05
2022-09-23T16:11:19.823Z,49.28
2022-09-23T16:13:50.537Z,49.90
2022-09-23T16:16:22.174Z,50.14
2022-09-23T16:18:53.288Z,50.38
2022-09-23T16:21:26.623Z,50.48
2022-09-23T16:23:59.133Z,50.89
2022-09-23T16:26:31.665Z,51.16
2022-09-23T16:29:02.703Z,51.68
2022-09-23T16:31:33.403Z,52.17
2022-09-23T16:34:04.102Z,52.08
2022-09-23T16:36:36.356Z,52.05
2022-09-23T16:39:10.158Z,52.07
2022-09-23T16:41:43.923Z,52.19
2022-09-23T16:44:16.289Z,52.22
2022-09-23T16:46:45.347Z,52.51
2022-09-23T16:49:16.109Z,52.62
2022-09-23T16:51:46.680Z,52.63
2022-09-23T16:54:19.295Z,52.83
2022-09-23T16:56:50.550Z,53.04
2022-09-23T16:59:21.348Z,53.09
2022-09-23T17:02:09.658Z,53.36
2022-09-23T17:04:40.471Z,53.37
2022-09-23T17:07:11.137Z,53.62
2022-09-23T17:09:41.790Z,53.92
2022-09-23T17:12:21.083Z,54.15
2022-09-23T17:14:52.475Z,54.17
2022-09-23T17:17:23.387Z,54.56
2022-09-23T17:19:55.996Z,54.79
2022-09-23T17:22:26.648Z,54.94
2022-09-23T17:24:58.003Z,55.15
2022-09-23T17:27:28.728Z,55.26
2022-09-23T17:29:59.412Z,55.32
2022-09-23T17:32:30.200Z,55.53
2022-09-23T17:35:04.533Z,55.57
2022-09-23T17:37:35.290Z,56.01
2022-09-23T17:40:07.339Z,56.15
2022-09-23T17:42:42.643Z,56.05
2022-09-23T17:45:14.625Z,56.18
2022-09-23T17:47:54.802Z,56.30
2022-09-23T17:50:25.534Z,56.47
2022-09-23T17:52:56.219Z,56.32
2022-09-23T17:55:27.035Z,56.27
2022-09-23T17:57:57.674Z,56.29
2022-09-23T18:00:29.003Z,56.34
2022-09-23T18:02:59.744Z,56.49
2022-09-23T18:05:30.432Z,56.36
2022-09-23T18:08:05.778Z,56.48
2022-09-23T18:10:36.802Z,56.53
2022-09-23T18:13:07.771Z,56.58
2022-09-23T18:15:40.686Z,56.89
2022-09-23T18:18:11.380Z,57.00
2022-09-23T18:20:41.941Z,57.33
2022-09-23T18:23:13.269Z,57.47
2022-09-23T18:25:43.966Z,57.62
2022-09-23T18:28:14.544Z,58.13
2022-09-23T18:30:55.101Z,58.57
2022-09-23T18:33:29.187Z,59.06
2022-09-23T18:36:02.285Z,59.30
2022-09-23T18:38:33.570Z,59.68
2022-09-23T18:41:04.377Z,60.00
2022-09-23T18:43:41.448Z,60.34
2022-09-23T18:46:16.533Z,60.51
2022-09-23T18:49:05.238Z,60.47
2022-09-23T18:51:38.396Z,60.50
2022-09-23T18:54:09.777Z,60.72
2022-09-23T18:56:44.617Z,60.70
2022-09-23T18:59:20.655Z,60.85
2022-09-23T19:01:54.034Z,61.07
2022-09-23T19:04:27.279Z,61.32
2022-09-23T19:06:59.236Z,61.27
2022-09-23T19:09:30.160Z,61.48
2022-09-23T19:12:02.395Z,61.56
2022-09-23T19:14:33.122Z,61.66
2022-09-23T19:17:05.277Z,61.81
2022-09-23T19:19:36.246Z,61.91
2022-09-23T19:22:07.027Z,61.90
2022-09-23T19:24:37.995Z,61.71
2022-09-23T19:27:08.729Z,61.45
2022-09-23T19:29:40.457Z,61.87
2022-09-23T19:32:11.341Z,62.07
2022-09-23T19:34:44.235Z,62.16
2022-09-23T19:37:16.505Z,62.53
2022-09-23T19:39:47.773Z,62.63
2022-09-23T19:42:18.478Z,62.70
2022-09-23T19:44:50.565Z,62.52
2022-09-23T19:47:21.416Z,62.53
2022-09-23T19:49:52.553Z,62.75
2022-09-23T19:52:23.837Z,63.02
2022-09-23T19:54:54.809Z,63.23
2022-09-23T19:57:29.611Z,63.21
2022-09-23T20:00:00.613Z,63.58
2022-09-23T20:02:32.282Z,63.70
2022-09-23T20:05:03.159Z,63.98
2022-09-23T20:07:34.080Z,64.12
2022-09-23T20:10:05.482Z,64.11
2022-09-23T20:12:37.107Z,64.13
2022-09-23T20:15:09.404Z,63.98
2022-09-23T20:20:25.722Z,64.26
2022-09-23T20:22:56.641Z,64.43
2022-09-23T20:25:27.322Z,64.41
2022-09-23T20:27:58.290Z,64.77
2022-09-23T20:30:29.721Z,64.64
2022-09-23T20:33:00.805Z,64.76
2022-09-23T20:35:32.981Z,64.82
2022-09-23T20:38:07.856Z,65.12
2022-09-23T20:40:39.410Z,65.23
2022-09-23T20:43:10.434Z,65.23
2022-09-23T20:45:41.341Z,65.36
2022-09-23T20:48:12.104Z,65.55
2022-09-23T20:50:43.089Z,65.42
2022-09-23T20:53:13.821Z,65.47
2022-09-23T20:55:53.273Z,65.49
2022-09-23T20:58:29.229Z,65.73
2022-09-23T21:01:05.713Z,65.66
2022-09-23T21:03:36.647Z,65.75
2022-09-23T21:06:09.652Z,65.98
2022-09-23T21:08:40.702Z,66.05
2022-09-23T21:11:15.937Z,66.28
2022-09-23T21:13:50.397Z,66.44
2022-09-23T21:16:23.200Z,66.51
2022-09-23T21:18:54.566Z,66.54
2022-09-23T21:21:25.342Z,66.68
2022-09-23T21:24:17.502Z,66.54
2022-09-23T21:26:47.437Z,66.65
2022-09-23T21:29:18.268Z,66.50
2022-09-23T21:31:49.647Z,66.63
2022-09-23T21:34:20.460Z,66.53
2022-09-23T21:36:51.274Z,66.69
2022-09-23T21:39:21.932Z,66.87
2022-09-23T21:41:52.486Z,67.24
2022-09-23T21:44:23.151Z,67.25
2022-09-23T21:46:54.475Z,67.24
2022-09-23T21:49:25.356Z,67.55
2022-09-23T21:51:58.942Z,67.37
2022-09-23T21:54:31.323Z,67.75
2022-09-23T21:57:02.062Z,67.59
2022-09-23T21:59:34.058Z,67.91
2022-09-23T22:02:04.787Z,67.94
2022-09-23T22:04:35.484Z,67.70
2022-09-23T22:07:06.220Z,67.90
2022-09-23T22:09:36.889Z,67.92
2022-09-23T22:12:09.924Z,67.94
2022-09-23T22:14:41.050Z,68.03
2022-09-23T22:17:14.599Z,67.91
2022-09-23T22:19:47.254Z,68.15
2022-09-23T22:22:19.979Z,67.88
2022-09-23T22:24:51.844Z,67.88
2022-09-23T22:27:23.671Z,67.85
2022-09-23T22:30:12.127Z,68.12
2022-09-23T22:32:43.675Z,68.16
2022-09-23T22:35:17.727Z,68.01
2022-09-23T22:37:48.624Z,67.93
2022-09-23T22:40:19.596Z,68.01
2022-09-23T22:42:50.327Z,68.09
2022-09-23T22:45:21.079Z,67.85
2022-09-23T22:47:53.284Z,68.00
2022-09-23T22:50:23.947Z,67.94
2022-09-23T22:52:54.654Z,68.12
2022-09-23T22:55:25.408Z,67.94
2022-09-23T22:57:55.941Z,68.32
2022-09-23T23:00:27.907Z,68.10
2022-09-23T23:03:00.240Z,68.37
2022-09-23T23:05:30.915Z,68.33
2022-09-23T23:08:02.228Z,68.08
2022-09-23T23:10:33.139Z,67.90
2022-09-23T23:13:05.330Z,67.85
2022-09-23T23:15:38.518Z,67.68
2022-09-23T23:18:09.288Z,67.71
2022-09-23T23:20:40.153Z,68.08
2022-09-23T23:23:10.806Z,68.18
2022-09-23T23:25:41.514Z,68.01
2022-09-23T23:28:12.139Z,68.45
2022-09-23T23:30:42.796Z,68.29
2022-09-23T23:33:13.395Z,68.41
2022-09-23T23:35:52.591Z,68.45
2022-09-23T23:38:23.227Z,68.49
2022-09-23T23:40:55.466Z,68.57
2022-09-23T23:43:26.263Z,68.57
2022-09-23T23:45:57.238Z,68.81
2022-09-23T23:48:29.183Z,68.85
2022-09-23T23:51:01.403Z,68.56
2022-09-23T23:53:34.700Z,68.40
2022-09-23T23:56:07.926Z,68.39
2022-09-23T23:58:39.266Z,68.65
